createdAt,value
2017-07-21T00:02:23.037Z,17.50
2017-07-21T00:04:53.121Z,17.30
2017-07-21T00:07:24.099Z,17.30
2017-07-21T00:09:54.591Z,17.30
2017-07-21T00:12:24.338Z,17.30
2017-07-21T00:14:54.091Z,17.20
2017-07-21T00:17:24.646Z,17.10
2017-07-21T00:19:54.384Z,17.00
2017-07-21T00:22:25.226Z,16.70
2017-07-21T00:24:55.525Z,16.70
2017-07-21T00:27:25.674Z,16.90
2017-07-21T00:29:56.087Z,17.10
2017-07-21T00:32:26.727Z,16.80
2017-07-21T00:34:56.550Z,16.80
2017-07-21T00:37:26.762Z,16.70
2017-07-21T00:39:56.999Z,16.90
2017-07-21T00:42:26.963Z,17.00
2017-07-21T00:44:57.119Z,16.90
2017-07-21T00:47:27.430Z,16.90
2017-07-21T00:49:57.674Z,16.80
2017-07-21T00:52:27.855Z,16.90
2017-07-21T00:54:58.183Z,17.00
2017-07-21T00:57:28.489Z,17.10
2017-07-21T00:59:58.046Z,17.00
2017-07-21T01:02:27.964Z,17.10
2017-07-21T01:04:57.537Z,17.20
2017-07-21T01:07:27.078Z,17.20
2017-07-21T01:09:57.238Z,17.20
2017-07-21T01:12:28.025Z,17.10
2017-07-21T01:14:57.872Z,17.10
2017-07-21T01:17:28.155Z,17.10
2017-07-21T01:19:58.485Z,17.20
2017-07-21T01:22:28.423Z,17.10
2017-07-21T01:24:58.001Z,17.10
2017-07-21T01:27:27.544Z,17.20
2017-07-21T01:29:57.621Z,17.10
2017-07-21T01:32:33.376Z,16.80
2017-07-21T01:35:03.283Z,16.90
2017-07-21T01:37:33.003Z,16.90
2017-07-21T01:40:03.594Z,16.90
2017-07-21T01:42:33.966Z,16.90
2017-07-21T01:45:03.831Z,17.00
2017-07-21T01:47:34.531Z,17.10
2017-07-21T01:50:05.578Z,17.10
2017-07-21T01:52:35.549Z,17.10
2017-07-21T01:55:05.987Z,17.10
2017-07-21T01:57:35.776Z,17.10
2017-07-21T02:00:05.522Z,17.10
2017-07-21T02:02:36.132Z,16.90
2017-07-21T02:05:05.970Z,16.70
2017-07-21T02:07:35.981Z,16.60
2017-07-21T02:10:06.669Z,16.70
2017-07-21T02:12:37.370Z,16.70
2017-07-21T02:15:07.815Z,16.70
2017-07-21T02:17:37.614Z,16.70
2017-07-21T02:20:07.642Z,16.70
2017-07-21T02:22:37.809Z,16.50
2017-07-21T02:25:07.714Z,16.50
2017-07-21T02:27:37.390Z,16.60
2017-07-21T02:30:07.427Z,16.50
2017-07-21T02:32:37.626Z,16.50
2017-07-21T02:35:08.124Z,16.70
2017-07-21T02:37:37.906Z,16.80
2017-07-21T02:40:08.641Z,16.80
2017-07-21T02:42:39.075Z,16.80
2017-07-21T02:45:09.003Z,16.90
2017-07-21T02:47:38.876Z,16.80
2017-07-21T02:50:08.846Z,16.90
2017-07-21T02:52:39.994Z,16.90
2017-07-21T02:55:09.994Z,16.90
2017-07-21T02:57:44.734Z,16.90
2017-07-21T03:00:23.419Z,16.90
2017-07-21T03:02:53.353Z,16.90
2017-07-21T03:05:22.915Z,16.70
2017-07-21T03:07:52.922Z,16.70
2017-07-21T03:10:22.433Z,16.80
2017-07-21T03:12:53.272Z,16.90
2017-07-21T03:15:22.978Z,16.90
2017-07-21T03:17:52.831Z,16.90
2017-07-21T03:20:23.008Z,16.90
2017-07-21T03:23:01.750Z,16.90
2017-07-21T03:25:32.097Z,16.90
2017-07-21T03:28:01.706Z,16.80
2017-07-21T03:30:31.647Z,16.60
2017-07-21T03:33:01.919Z,16.60
2017-07-21T03:35:32.730Z,16.40
2017-07-21T03:38:02.585Z,16.40
2017-07-21T03:40:32.465Z,16.40
2017-07-21T03:43:02.028Z,16.50
2017-07-21T03:45:32.060Z,16.60
2017-07-21T03:48:01.642Z,16.70
2017-07-21T03:50:31.503Z,16.70
2017-07-21T03:53:01.053Z,16.70
2017-07-21T03:55:30.669Z,16.70
2017-07-21T03:58:00.620Z,16.70
2017-07-21T04:00:30.162Z,16.80
2017-07-21T04:03:00.148Z,16.70
2017-07-21T04:05:30.068Z,16.80
2017-07-21T04:07:59.730Z,16.70
2017-07-21T04:10:29.617Z,16.90
2017-07-21T04:13:00.374Z,16.80
2017-07-21T04:15:30.212Z,16.80
2017-07-21T04:18:00.622Z,16.90
2017-07-21T04:20:30.148Z,16.80
2017-07-21T04:22:59.750Z,16.60
2017-07-21T04:25:29.294Z,16.70
2017-07-21T04:28:00.367Z,16.90
2017-07-21T04:30:30.080Z,16.80
2017-07-21T04:32:59.656Z,17.00
2017-07-21T04:35:31.698Z,17.20
2017-07-21T04:38:01.742Z,17.30
2017-07-21T04:40:32.829Z,17.30
2017-07-21T04:43:02.551Z,17.20
2017-07-21T04:45:46.994Z,17.40
2017-07-21T04:48:54.339Z,17.40
2017-07-21T04:51:23.885Z,17.40
2017-07-21T04:53:53.428Z,17.50
2017-07-21T04:56:22.955Z,17.50
2017-07-21T04:58:52.543Z,17.60
2017-07-21T05:01:22.398Z,17.90
2017-07-21T05:03:52.295Z,18.30
2017-07-21T05:06:22.332Z,19.40
2017-07-21T05:08:52.157Z,20.50
2017-07-21T05:11:25.382Z,22.20
2017-07-21T05:13:55.262Z,23.90
2017-07-21T05:16:25.187Z,24.10
2017-07-21T05:18:54.964Z,23.30
2017-07-21T05:21:25.802Z,21.80
2017-07-21T05:27:19.959Z,20.80
2017-07-21T05:29:50.141Z,20.20
2017-07-21T05:34:35.030Z,20.10
2017-07-21T05:37:06.342Z,19.60
2017-07-21T05:39:39.404Z,19.70
2017-07-21T05:42:09.238Z,19.60
2017-07-21T05:44:57.696Z,19.70
2017-07-21T05:47:30.216Z,19.80
2017-07-21T05:49:59.969Z,19.60
2017-07-21T05:52:30.329Z,19.50
2017-07-21T05:55:02.255Z,19.40
2017-07-21T05:57:32.998Z,19.10
2017-07-21T06:02:56.053Z,19.40
2017-07-21T06:05:25.870Z,19.60
2017-07-21T06:07:55.700Z,19.50
2017-07-21T06:10:28.412Z,19.60
2017-07-21T06:13:05.562Z,19.60
2017-07-21T06:15:36.818Z,20.10
2017-07-21T06:18:08.338Z,20.10
2017-07-21T06:20:54.159Z,20.50
2017-07-21T06:23:26.537Z,20.60
2017-07-21T06:26:00.795Z,21.90
2017-07-21T06:28:31.878Z,27.10
2017-07-21T06:31:02.859Z,26.90
2017-07-21T06:33:39.110Z,29.80
2017-07-21T06:36:09.136Z,29.70
2017-07-21T06:38:40.992Z,30.30
2017-07-21T06:41:11.525Z,29.70
2017-07-21T06:43:41.186Z,29.90
2017-07-21T06:46:14.380Z,29.90
2017-07-21T06:48:49.083Z,31.40
2017-07-21T06:51:18.887Z,32.20
2017-07-21T06:54:29.450Z,31.30
2017-07-21T06:57:00.954Z,31.90
2017-07-21T06:59:30.634Z,33.40
2017-07-21T07:02:02.156Z,34.30
2017-07-21T07:04:35.658Z,33.80
2017-07-21T07:07:07.084Z,35.50
2017-07-21T07:09:36.806Z,36.10
2017-07-21T07:12:09.344Z,36.90
2017-07-21T07:14:49.031Z,35.90
2017-07-21T07:17:22.328Z,35.90
2017-07-21T07:20:27.493Z,36.70
2017-07-21T07:23:24.305Z,35.00
2017-07-21T07:28:54.019Z,35.90
2017-07-21T07:31:35.212Z,36.70
2017-07-21T07:34:11.173Z,36.60
2017-07-21T07:36:40.922Z,37.60
2017-07-21T07:39:10.772Z,37.50
2017-07-21T07:41:40.323Z,37.90
2017-07-21T07:44:10.098Z,36.30
2017-07-21T07:46:39.778Z,37.30
2017-07-21T07:49:11.067Z,36.60
2017-07-21T07:51:42.457Z,35.70
2017-07-21T07:54:13.543Z,35.70
2017-07-21T07:56:43.343Z,36.60
2017-07-21T07:59:13.107Z,36.40
2017-07-21T08:01:42.975Z,34.40
2017-07-21T08:04:12.601Z,35.70
2017-07-21T08:06:47.791Z,34.40
2017-07-21T08:09:19.398Z,36.10
2017-07-21T08:12:07.403Z,37.70
2017-07-21T08:14:37.393Z,39.60
2017-07-21T08:23:20.852Z,32.50
2017-07-21T08:25:50.559Z,32.40
2017-07-21T08:28:20.499Z,33.50
2017-07-21T08:30:51.007Z,34.20
2017-07-21T08:33:20.568Z,29.20
2017-07-21T08:35:51.335Z,28.70
2017-07-21T08:38:21.057Z,28.80
2017-07-21T08:40:50.805Z,29.80
2017-07-21T08:43:20.372Z,30.10
2017-07-21T08:45:55.542Z,32.50
2017-07-21T08:48:26.163Z,33.60
2017-07-21T08:50:57.590Z,33.80
2017-07-21T08:53:27.566Z,31.70
2017-07-21T08:55:58.260Z,31.00
2017-07-21T08:58:28.134Z,32.20
2017-07-21T09:00:58.074Z,29.50
2017-07-21T09:03:29.497Z,31.20
2017-07-21T09:09:27.154Z,31.30
2017-07-21T09:11:57.792Z,30.10
2017-07-21T09:14:28.113Z,32.00
2017-07-21T09:16:58.746Z,32.10
2017-07-21T09:22:42.837Z,30.00
2017-07-21T09:25:17.120Z,29.80
2017-07-21T09:27:54.620Z,30.80
2017-07-21T09:33:31.127Z,30.90
2017-07-21T09:36:05.368Z,30.80
2017-07-21T09:38:36.164Z,29.60
2017-07-21T09:41:07.796Z,30.40
2017-07-21T09:43:41.059Z,30.40
2017-07-21T09:49:08.843Z,28.80
2017-07-21T09:54:43.622Z,29.60
2017-07-21T09:57:25.927Z,28.60
2017-07-21T09:59:56.841Z,28.50
2017-07-21T10:05:07.687Z,28.80
2017-07-21T10:10:38.226Z,28.50
2017-07-21T10:13:26.514Z,28.50
2017-07-21T10:18:43.514Z,29.40
2017-07-21T10:21:15.038Z,29.70
2017-07-21T10:23:44.714Z,27.80
2017-07-21T10:26:14.854Z,28.60
2017-07-21T10:28:44.427Z,29.10
2017-07-21T10:31:35.634Z,30.70
2017-07-21T10:34:12.099Z,30.90
2017-07-21T10:36:47.474Z,30.40
2017-07-21T10:39:22.436Z,28.00
2017-07-21T10:41:53.047Z,28.70
2017-07-21T10:44:26.776Z,27.60
2017-07-21T10:46:57.080Z,27.70
2017-07-21T10:49:34.781Z,28.60
2017-07-21T10:52:06.671Z,29.10
2017-07-21T10:54:41.007Z,28.30
2017-07-21T10:57:11.641Z,28.20
2017-07-21T10:59:44.890Z,29.00
2017-07-21T11:02:20.432Z,29.60
2017-07-21T11:05:03.112Z,29.80
2017-07-21T11:07:33.122Z,29.40
2017-07-21T11:10:02.787Z,29.30
2017-07-21T11:12:32.353Z,28.90
2017-07-21T11:15:01.884Z,29.30
2017-07-21T11:17:32.772Z,29.60
2017-07-21T11:20:02.486Z,29.20
2017-07-21T11:22:32.007Z,28.80
2017-07-21T11:25:01.622Z,28.60
2017-07-21T11:27:52.328Z,28.40
2017-07-21T11:30:21.943Z,28.20
2017-07-21T11:32:51.575Z,28.60
2017-07-21T11:35:21.383Z,27.90
2017-07-21T11:37:51.122Z,27.00
2017-07-21T11:40:20.789Z,27.00
2017-07-21T11:42:50.358Z,27.20
2017-07-21T11:45:19.897Z,27.50
2017-07-21T11:47:49.690Z,27.80
2017-07-21T11:50:19.198Z,27.40
2017-07-21T11:52:48.699Z,27.60
2017-07-21T11:55:18.210Z,27.90
2017-07-21T11:57:50.972Z,27.60
2017-07-21T12:00:20.501Z,27.30
2017-07-21T12:02:49.987Z,27.70
2017-07-21T12:05:19.799Z,28.10
2017-07-21T12:07:49.353Z,28.40
2017-07-21T12:10:19.062Z,28.40
2017-07-21T12:12:49.274Z,28.50
2017-07-21T12:15:18.883Z,27.80
2017-07-21T12:17:48.818Z,28.00
2017-07-21T12:20:18.375Z,28.10
2017-07-21T12:22:48.002Z,28.20
2017-07-21T12:25:17.517Z,27.80
2017-07-21T12:27:47.907Z,28.40
2017-07-21T12:30:17.888Z,28.30
2017-07-21T12:32:47.498Z,28.10
2017-07-21T12:35:17.050Z,27.80
2017-07-21T12:37:46.729Z,28.10
2017-07-21T12:40:16.845Z,28.30
2017-07-21T12:42:46.342Z,27.80
2017-07-21T12:45:19.028Z,28.20
2017-07-21T12:47:49.079Z,27.90
2017-07-21T12:50:18.567Z,28.00
2017-07-21T12:52:48.266Z,28.20
2017-07-21T12:55:18.920Z,28.60
2017-07-21T12:57:48.506Z,28.70
2017-07-21T13:00:18.439Z,28.90
2017-07-21T13:02:48.095Z,28.60
2017-07-21T13:05:17.662Z,28.50
2017-07-21T13:07:47.168Z,27.80
2017-07-21T13:10:16.718Z,27.70
2017-07-21T13:12:46.232Z,27.70
2017-07-21T13:15:15.779Z,27.60
2017-07-21T13:17:46.391Z,27.70
2017-07-21T13:20:16.853Z,27.70
2017-07-21T13:22:46.402Z,27.60
2017-07-21T13:25:16.247Z,28.00
2017-07-21T13:27:45.829Z,28.10
2017-07-21T13:30:15.606Z,28.00
2017-07-21T13:32:45.174Z,28.10
2017-07-21T13:35:14.706Z,28.10
2017-07-21T13:37:44.265Z,28.50
2017-07-21T13:40:13.812Z,28.30
2017-07-21T13:42:43.570Z,28.30
2017-07-21T13:45:13.642Z,28.00
2017-07-21T13:47:43.675Z,28.00
2017-07-21T13:50:13.222Z,28.00
2017-07-21T13:52:43.700Z,28.30
2017-07-21T13:55:13.558Z,28.20
2017-07-21T13:59:46.250Z,28.30
2017-07-21T14:02:22.704Z,28.40
2017-07-21T14:04:52.826Z,28.50
2017-07-21T14:07:27.248Z,28.20
2017-07-21T14:09:58.131Z,28.20
2017-07-21T14:12:54.007Z,28.00
2017-07-21T14:18:45.314Z,27.80
2017-07-21T14:21:15.982Z,27.90
2017-07-21T14:23:52.221Z,27.80
2017-07-21T14:26:22.758Z,28.00
2017-07-21T14:28:54.496Z,27.60
2017-07-21T14:31:25.737Z,27.60
2017-07-21T14:33:57.432Z,27.50
2017-07-21T14:36:27.003Z,27.60
2017-07-21T14:38:58.728Z,27.40
2017-07-21T14:41:28.688Z,27.30
2017-07-21T14:43:59.867Z,27.60
2017-07-21T14:46:32.190Z,27.60
2017-07-21T14:49:03.224Z,27.80
2017-07-21T14:51:33.775Z,27.60
2017-07-21T14:54:05.672Z,27.60
2017-07-21T14:56:36.707Z,27.60
2017-07-21T14:59:06.312Z,27.80
2017-07-21T15:01:37.088Z,27.60
2017-07-21T15:04:07.595Z,27.70
2017-07-21T15:06:38.320Z,27.90
2017-07-21T15:09:08.727Z,27.90
2017-07-21T15:11:38.483Z,27.90
2017-07-21T15:14:08.760Z,28.00
2017-07-21T15:16:40.347Z,28.00
2017-07-21T15:19:10.765Z,28.10
2017-07-21T15:21:46.359Z,28.20
2017-07-21T15:24:17.452Z,27.90
2017-07-21T15:26:51.529Z,27.60
2017-07-21T15:29:26.656Z,27.30
2017-07-21T15:31:57.195Z,27.10
2017-07-21T15:34:27.835Z,26.90
2017-07-21T15:36:58.144Z,26.90
2017-07-21T15:39:28.257Z,27.20
2017-07-21T15:41:59.625Z,27.50
2017-07-21T15:44:31.130Z,27.80
2017-07-21T15:47:01.668Z,27.70
2017-07-21T15:49:31.747Z,27.20
2017-07-21T15:52:02.012Z,27.30
2017-07-21T15:54:33.344Z,27.50
2017-07-21T15:57:05.389Z,27.60
2017-07-21T15:59:35.368Z,27.60
2017-07-21T16:02:25.098Z,27.80
2017-07-21T16:04:59.773Z,27.70
2017-07-21T16:07:32.788Z,27.70
2017-07-21T16:16:05.015Z,27.00
2017-07-21T16:18:36.716Z,27.00
2017-07-21T16:21:22.458Z,26.80
2017-07-21T16:23:52.752Z,26.80
2017-07-21T16:26:25.553Z,26.80
2017-07-21T16:29:06.836Z,26.70
2017-07-21T16:31:39.591Z,26.60
2017-07-21T16:34:21.949Z,26.50
2017-07-21T16:36:56.353Z,26.60
2017-07-21T16:39:27.292Z,26.50
2017-07-21T16:42:39.427Z,26.50
2017-07-21T16:45:12.987Z,26.50
2017-07-21T16:47:42.779Z,26.40
2017-07-21T16:50:16.907Z,26.30
2017-07-21T16:52:46.884Z,26.10
2017-07-21T16:55:16.667Z,26.00
2017-07-21T16:57:47.555Z,25.90
2017-07-21T17:00:18.787Z,25.70
2017-07-21T17:02:49.003Z,25.50
2017-07-21T17:05:18.628Z,25.20
2017-07-21T17:07:49.125Z,24.20
2017-07-21T17:10:19.710Z,24.10
2017-07-21T17:12:49.794Z,23.80
2017-07-21T17:15:24.035Z,22.00
2017-07-21T17:17:54.082Z,21.90
2017-07-21T17:20:24.456Z,22.00
2017-07-21T17:22:57.466Z,21.80
2017-07-21T17:25:34.051Z,21.50
2017-07-21T17:28:05.428Z,21.10
2017-07-21T17:30:36.147Z,21.10
2017-07-21T17:33:08.949Z,20.90
2017-07-21T17:35:40.810Z,20.80
2017-07-21T17:38:11.033Z,20.90
2017-07-21T17:40:45.324Z,21.10
2017-07-21T17:43:16.984Z,20.90
2017-07-21T17:45:47.682Z,20.70
2017-07-21T17:48:19.840Z,20.60
2017-07-21T17:50:51.192Z,20.70
2017-07-21T17:53:25.991Z,20.70
2017-07-21T17:55:57.988Z,20.60
2017-07-21T17:58:28.063Z,20.70
2017-07-21T18:00:58.068Z,20.70
2017-07-21T18:03:28.199Z,20.60
2017-07-21T18:05:58.008Z,20.80
2017-07-21T18:08:29.071Z,20.70
2017-07-21T18:10:58.853Z,20.60
2017-07-21T18:13:29.011Z,20.50
2017-07-21T18:15:58.641Z,20.60
2017-07-21T18:18:28.251Z,20.10
2017-07-21T18:20:59.525Z,20.00
2017-07-21T18:23:30.525Z,20.00
2017-07-21T18:26:00.547Z,20.40
2017-07-21T18:28:30.211Z,20.60
2017-07-21T18:31:00.636Z,20.70
2017-07-21T18:33:30.753Z,20.60
2017-07-21T18:36:00.525Z,20.50
2017-07-21T18:38:30.741Z,20.30
2017-07-21T18:41:00.861Z,19.90
2017-07-21T18:43:30.842Z,19.40
2017-07-21T18:46:00.872Z,19.30
2017-07-21T18:48:30.558Z,18.80
2017-07-21T18:51:00.215Z,18.90
2017-07-21T18:53:29.945Z,19.20
2017-07-21T18:55:59.600Z,18.70
2017-07-21T18:58:29.997Z,18.80
2017-07-21T19:00:59.969Z,19.00
2017-07-21T19:03:53.471Z,19.30
2017-07-21T19:06:23.833Z,19.30
2017-07-21T19:08:53.798Z,18.80
2017-07-21T19:11:23.754Z,18.90
2017-07-21T19:13:53.651Z,19.20
2017-07-21T19:16:23.739Z,19.30
2017-07-21T19:18:55.877Z,19.50
2017-07-21T19:21:26.967Z,19.50
2017-07-21T19:23:57.562Z,19.10
2017-07-21T19:26:28.275Z,19.10
2017-07-21T19:29:03.755Z,19.20
2017-07-21T19:31:34.239Z,18.90
2017-07-21T19:34:16.574Z,18.90
2017-07-21T19:36:47.353Z,18.70
2017-07-21T19:39:17.757Z,18.40
2017-07-21T19:41:47.662Z,18.40
2017-07-21T19:44:20.598Z,18.40
2017-07-21T19:46:50.666Z,18.40
2017-07-21T19:49:20.260Z,18.40
2017-07-21T19:51:50.271Z,18.50
2017-07-21T19:54:19.854Z,18.70
2017-07-21T20:00:08.803Z,18.60
2017-07-21T20:02:38.616Z,18.60
2017-07-21T20:05:08.200Z,18.90
2017-07-21T20:07:38.003Z,18.60
2017-07-21T20:10:07.689Z,18.50
2017-07-21T20:12:37.334Z,18.70
2017-07-21T20:15:07.538Z,18.70
2017-07-21T20:17:38.035Z,18.90
2017-07-21T20:20:13.005Z,18.90
2017-07-21T20:22:48.847Z,18.60
2017-07-21T20:25:19.043Z,18.60
2017-07-21T20:27:49.059Z,18.60
2017-07-21T20:30:21.077Z,18.50
2017-07-21T20:32:53.031Z,18.20
2017-07-21T20:35:22.906Z,18.30
2017-07-21T20:37:52.815Z,18.50
2017-07-21T20:40:22.745Z,18.50
2017-07-21T20:42:52.511Z,18.50
2017-07-21T20:45:22.777Z,18.50
2017-07-21T20:47:52.830Z,18.40
2017-07-21T20:50:22.692Z,18.40
2017-07-21T20:52:52.349Z,18.40
2017-07-21T20:55:22.072Z,18.50
2017-07-21T20:57:52.106Z,18.30
2017-07-21T21:00:21.749Z,18.10
2017-07-21T21:02:52.304Z,18.10
2017-07-21T21:05:22.053Z,18.30
2017-07-21T21:07:51.898Z,18.30
2017-07-21T21:10:21.862Z,18.40
2017-07-21T21:12:51.395Z,18.40
2017-07-21T21:15:20.999Z,18.30
2017-07-21T21:17:50.654Z,18.20
2017-07-21T21:20:20.274Z,18.30
2017-07-21T21:22:50.348Z,18.40
2017-07-21T21:25:20.114Z,18.10
2017-07-21T21:27:50.180Z,18.10
2017-07-21T21:30:21.111Z,18.10
2017-07-21T21:32:50.844Z,18.10
2017-07-21T21:35:20.861Z,18.30
2017-07-21T21:37:51.722Z,18.40
2017-07-21T21:40:21.511Z,18.50
2017-07-21T21:42:51.615Z,18.50
2017-07-21T21:45:21.481Z,18.50
2017-07-21T21:47:51.201Z,18.50
2017-07-21T21:50:21.209Z,18.60
2017-07-21T21:52:51.066Z,18.50
2017-07-21T21:55:21.141Z,18.40
2017-07-21T21:57:51.032Z,18.40
2017-07-21T22:00:21.570Z,18.50
2017-07-21T22:02:51.908Z,18.60
2017-07-21T22:05:21.861Z,18.70
2017-07-21T22:07:51.574Z,18.70
2017-07-21T22:10:21.845Z,18.70
2017-07-21T22:12:51.548Z,18.60
2017-07-21T22:15:30.720Z,18.10
2017-07-21T22:18:00.524Z,18.00
2017-07-21T22:20:30.362Z,18.20
2017-07-21T22:23:00.300Z,18.10
2017-07-21T22:25:31.275Z,18.40
2017-07-21T22:28:01.990Z,18.50
2017-07-21T22:30:31.591Z,18.50
2017-07-21T22:33:01.234Z,18.50
2017-07-21T22:35:31.214Z,18.40
2017-07-21T22:38:00.945Z,18.20
2017-07-21T22:40:30.718Z,18.40
2017-07-21T22:43:00.757Z,18.60
2017-07-21T22:45:30.673Z,18.70
2017-07-21T22:48:00.666Z,18.80
2017-07-21T22:50:30.479Z,18.90
2017-07-21T22:53:00.214Z,18.90
2017-07-21T22:55:30.452Z,18.80
2017-07-21T22:58:00.160Z,18.90
2017-07-21T23:00:30.679Z,18.70
2017-07-21T23:03:00.921Z,18.70
2017-07-21T23:05:30.795Z,18.40
2017-07-21T23:08:01.303Z,18.50
2017-07-21T23:10:31.611Z,18.50
2017-07-21T23:13:02.463Z,18.60
2017-07-21T23:15:33.238Z,18.60
2017-07-21T23:18:04.486Z,18.70
2017-07-21T23:20:34.900Z,18.70
2017-07-21T23:23:04.682Z,18.70
2017-07-21T23:25:34.246Z,18.60
2017-07-21T23:28:04.262Z,18.50
2017-07-21T23:30:33.819Z,18.40
2017-07-21T23:33:03.419Z,18.20
2017-07-21T23:35:33.221Z,18.20
2017-07-21T23:38:02.804Z,18.10
2017-07-21T23:40:32.380Z,18.40
2017-07-21T23:43:01.922Z,18.60
2017-07-21T23:45:31.459Z,18.10
2017-07-21T23:48:01.260Z,18.20
2017-07-21T23:50:30.803Z,18.30
2017-07-21T23:53:00.354Z,18.40
2017-07-21T23:55:31.716Z,18.50
2017-07-21T23:58:01.867Z,18.50
